Time;durP1;ratioP1;P1;durP2;ratioP2;P2;SDS_P1;SDS_P2;PMS_P1;PMS_P2;Temp;Humidity;BMP_temperature;BMP_pressure;BME280_temperature;BME280_humidity;BME280_pressure;Samples;Min_cycle;Max_cycle;Signal;HPM_P1;HPM_P2
2022/10/16 00:01:10;;;;;;;;;;;13.60;96.10;;;;;;4992151;28;20629;-69
2022/10/16 00:03:36;;;;;;;;;;;13.60;96.10;;;;;;4996699;28;20351;-69
2022/10/16 00:06:03;;;;;;;;;;;13.60;96.10;;;;;;4989444;28;19913;-70
2022/10/16 00:08:28;;;;;;;;;;;13.60;96.10;;;;;;4987224;28;20570;-70
2022/10/16 00:11:01;;;;;;;;;;;13.60;96.10;;;;;;4994166;28;19921;-70
2022/10/16 00:13:28;;;;;;;;;;;13.60;96.10;;;;;;4989381;28;19922;-70
2022/10/16 00:15:55;;;;;;;;;;;13.60;96.10;;;;;;4987579;28;19917;-70
2022/10/16 00:18:21;;;;;;;;;;;13.60;96.10;;;;;;4993401;28;19914;-69
2022/10/16 00:20:46;;;;;;;;;;;13.60;96.10;;;;;;4990282;28;20645;-70
2022/10/16 00:23:12;;;;;;;;;;;13.50;96.10;;;;;;4990667;28;19910;-69
2022/10/16 00:25:37;;;;;;;;;;;13.60;96.10;;;;;;4987549;28;19913;-70
2022/10/16 00:28:02;;;;;;;;;;;13.50;96.10;;;;;;4988870;28;20021;-70
2022/10/16 00:30:28;;;;;;;;;;;13.50;96.10;;;;;;5000114;28;19921;-70
2022/10/16 00:32:54;;;;;;;;;;;13.50;96.10;;;;;;4988969;28;19914;-70
2022/10/16 00:35:20;;;;;;;;;;;13.50;96.10;;;;;;5001690;28;19967;-69
2022/10/16 00:37:45;;;;;;;;;;;13.50;96.10;;;;;;4993569;28;19914;-70
2022/10/16 00:40:11;;;;;;;;;;;13.50;96.10;;;;;;4995385;28;19918;-70
2022/10/16 00:42:36;;;;;;;;;;;13.50;96.10;;;;;;4986703;28;19914;-69
2022/10/16 00:45:02;;;;;;;;;;;13.50;96.10;;;;;;4989278;28;20688;-69
2022/10/16 00:47:28;;;;;;;;;;;13.50;96.20;;;;;;4996132;28;19914;-69
2022/10/16 00:49:57;;;;;;;;;;;13.50;96.10;;;;;;4987743;28;19918;-70
2022/10/16 00:52:22;;;;;;;;;;;13.50;96.20;;;;;;4991199;28;19952;-70
2022/10/16 00:54:49;;;;;;;;;;;13.40;96.40;;;;;;4994799;28;19929;-70
2022/10/16 00:57:15;;;;;;;;;;;13.50;96.10;;;;;;4987786;28;19964;-69
2022/10/16 00:59:41;;;;;;;;;;;13.50;96.20;;;;;;4989570;28;20453;-69
2022/10/16 01:02:07;;;;;;;;;;;13.40;96.10;;;;;;4993913;28;19914;-69
2022/10/16 01:04:44;;;;;;;;;;;13.40;96.10;;;;;;4991970;28;19921;-70
2022/10/16 01:07:17;;;;;;;;;;;13.50;96.10;;;;;;4996095;28;19936;-70
2022/10/16 01:09:45;;;;;;;;;;;13.40;96.10;;;;;;4986650;28;19921;-70
2022/10/16 01:12:31;;;;;;;;;;;13.40;96.10;;;;;;4992467;28;19913;-69
2022/10/16 01:14:59;;;;;;;;;;;13.40;96.10;;;;;;4988314;28;20538;-70
2022/10/16 01:17:30;;;;;;;;;;;13.40;96.40;;;;;;4989519;28;20433;-70
2022/10/16 01:20:16;;;;;;;;;;;13.40;96.10;;;;;;4991272;28;19914;-70
2022/10/16 01:22:47;;;;;;;;;;;13.40;96.10;;;;;;4993074;28;20271;-69
2022/10/16 01:25:18;;;;;;;;;;;13.40;96.10;;;;;;4997399;28;20000;-69
2022/10/16 01:27:45;;;;;;;;;;;13.40;96.20;;;;;;4992262;28;19917;-70
2022/10/16 01:30:17;;;;;;;;;;;13.40;96.10;;;;;;4990350;28;19920;-70
2022/10/16 01:32:49;;;;;;;;;;;13.40;96.10;;;;;;4993305;28;20589;-69
2022/10/16 01:35:23;;;;;;;;;;;13.40;96.10;;;;;;4987217;28;20370;-70
2022/10/16 01:37:52;;;;;;;;;;;13.40;96.10;;;;;;4992353;28;19940;-70
2022/10/16 01:40:19;;;;;;;;;;;13.30;96.10;;;;;;4984882;28;19944;-70
2022/10/16 01:42:48;;;;;;;;;;;13.30;96.10;;;;;;4994464;28;19910;-69
2022/10/16 01:45:15;;;;;;;;;;;13.30;96.10;;;;;;4985374;28;19922;-69
2022/10/16 01:47:41;;;;;;;;;;;13.30;96.00;;;;;;4999243;28;19910;-70
2022/10/16 01:50:07;;;;;;;;;;;13.30;96.10;;;;;;4987367;28;19918;-69
2022/10/16 01:52:35;;;;;;;;;;;13.30;96.10;;;;;;4989291;28;20025;-70
2022/10/16 01:55:02;;;;;;;;;;;13.30;96.10;;;;;;4991732;28;20438;-69
2022/10/16 01:57:28;;;;;;;;;;;13.30;96.10;;;;;;4994627;28;19914;-70
2022/10/16 01:59:56;;;;;;;;;;;13.30;96.10;;;;;;4990224;28;20371;-70
2022/10/16 02:02:22;;;;;;;;;;;13.30;96.10;;;;;;4987233;28;19949;-69
2022/10/16 02:04:57;;;;;;;;;;;13.30;96.10;;;;;;4995198;28;20493;-70
2022/10/16 02:07:23;;;;;;;;;;;13.20;96.10;;;;;;4990760;28;19947;-70
2022/10/16 02:09:48;;;;;;;;;;;13.20;96.10;;;;;;4996059;28;19925;-70
2022/10/16 02:12:19;;;;;;;;;;;13.20;96.10;;;;;;4988112;28;20463;-70
2022/10/16 02:14:44;;;;;;;;;;;13.30;96.10;;;;;;4984202;28;19918;-70
2022/10/16 02:17:14;;;;;;;;;;;13.20;96.00;;;;;;4985639;28;20616;-70
2022/10/16 02:19:40;;;;;;;;;;;13.20;96.00;;;;;;4987854;28;20452;-69
2022/10/16 02:22:06;;;;;;;;;;;13.20;96.00;;;;;;4987541;28;19921;-70
2022/10/16 02:24:43;;;;;;;;;;;13.20;96.00;;;;;;4999120;28;19960;-70
2022/10/16 02:27:25;;;;;;;;;;;13.20;96.00;;;;;;4988371;28;19921;-70
2022/10/16 02:29:53;;;;;;;;;;;13.20;96.00;;;;;;4993016;28;19913;-70
2022/10/16 02:32:24;;;;;;;;;;;13.20;96.00;;;;;;4990528;28;20426;-70
2022/10/16 02:34:50;;;;;;;;;;;13.20;96.00;;;;;;4993612;28;19967;-69
2022/10/16 02:37:17;;;;;;;;;;;13.20;96.00;;;;;;4989983;28;19918;-70
2022/10/16 02:39:43;;;;;;;;;;;13.20;96.00;;;;;;4989801;28;19913;-69
2022/10/16 02:42:17;;;;;;;;;;;13.20;96.00;;;;;;4994162;28;19921;-70
2022/10/16 02:44:42;;;;;;;;;;;13.20;96.00;;;;;;4992302;28;19936;-70
2022/10/16 02:47:08;;;;;;;;;;;13.20;96.10;;;;;;4994664;28;20603;-69
2022/10/16 02:49:33;;;;;;;;;;;13.20;96.00;;;;;;4989140;28;19949;-70
2022/10/16 02:51:59;;;;;;;;;;;13.20;96.10;;;;;;4992326;28;19918;-70
2022/10/16 02:54:24;;;;;;;;;;;13.20;96.00;;;;;;4983922;28;19972;-70
2022/10/16 02:56:50;;;;;;;;;;;13.20;96.00;;;;;;4991257;28;19914;-70
2022/10/16 02:59:15;;;;;;;;;;;13.20;96.00;;;;;;4993845;28;20306;-69
2022/10/16 03:01:41;;;;;;;;;;;13.20;96.00;;;;;;4996310;28;19913;-70
2022/10/16 03:04:06;;;;;;;;;;;13.20;95.90;;;;;;4988435;28;19985;-70
2022/10/16 03:06:32;;;;;;;;;;;13.20;96.00;;;;;;4993912;28;19918;-70
2022/10/16 03:08:57;;;;;;;;;;;13.20;96.00;;;;;;4989748;28;19918;-70
2022/10/16 03:11:23;;;;;;;;;;;13.20;96.00;;;;;;4999820;28;20007;-70
2022/10/16 03:13:48;;;;;;;;;;;13.20;96.00;;;;;;4991470;28;20396;-69
2022/10/16 03:16:13;;;;;;;;;;;13.20;96.00;;;;;;4995465;28;20662;-70
2022/10/16 03:18:39;;;;;;;;;;;13.20;96.00;;;;;;4986756;28;19914;-70
2022/10/16 03:21:04;;;;;;;;;;;13.20;96.00;;;;;;4992100;28;20008;-70
2022/10/16 03:23:30;;;;;;;;;;;13.20;96.00;;;;;;4989215;28;19924;-70
2022/10/16 03:25:55;;;;;;;;;;;13.20;96.00;;;;;;4993315;28;19940;-70
2022/10/16 03:28:21;;;;;;;;;;;13.20;96.00;;;;;;4994803;28;20414;-70
2022/10/16 03:30:46;;;;;;;;;;;13.20;96.00;;;;;;4992347;28;19918;-71
2022/10/16 03:33:12;;;;;;;;;;;13.10;95.90;;;;;;5003457;28;20063;-70
2022/10/16 03:35:37;;;;;;;;;;;13.20;96.00;;;;;;4994257;28;19932;-70
2022/10/16 03:38:03;;;;;;;;;;;13.20;96.00;;;;;;4993053;28;19913;-70
2022/10/16 03:40:29;;;;;;;;;;;13.20;96.00;;;;;;4992009;28;20036;-71
2022/10/16 03:42:57;;;;;;;;;;;13.20;96.00;;;;;;5002562;28;19914;-72
2022/10/16 03:45:22;;;;;;;;;;;13.10;95.90;;;;;;4994245;28;20003;-70
2022/10/16 03:47:48;;;;;;;;;;;13.20;96.00;;;;;;4998973;28;20633;-70
2022/10/16 03:50:13;;;;;;;;;;;13.20;95.90;;;;;;4999784;28;19971;-70
2022/10/16 03:52:39;;;;;;;;;;;13.10;95.90;;;;;;4995554;28;20256;-70
2022/10/16 03:55:04;;;;;;;;;;;13.20;96.00;;;;;;4991611;28;20343;-70
2022/10/16 03:57:30;;;;;;;;;;;13.10;96.00;;;;;;4994654;28;20007;-69
2022/10/16 03:59:55;;;;;;;;;;;13.20;96.00;;;;;;5000990;28;19913;-70
2022/10/16 04:02:21;;;;;;;;;;;13.10;96.00;;;;;;4986164;28;19914;-69
2022/10/16 04:04:46;;;;;;;;;;;13.10;96.00;;;;;;4990739;28;20028;-71
2022/10/16 04:07:12;;;;;;;;;;;13.20;96.00;;;;;;4984977;28;20375;-70
2022/10/16 04:09:37;;;;;;;;;;;13.10;96.00;;;;;;4994265;28;19928;-70
2022/10/16 04:12:03;;;;;;;;;;;13.10;96.00;;;;;;4987587;28;19920;-69
2022/10/16 04:14:28;;;;;;;;;;;13.10;96.00;;;;;;4993741;28;19976;-70
2022/10/16 04:16:54;;;;;;;;;;;13.10;96.00;;;;;;4988978;28;19920;-70
2022/10/16 04:19:19;;;;;;;;;;;13.10;96.10;;;;;;4992962;28;19914;-70
2022/10/16 04:21:45;;;;;;;;;;;13.10;96.00;;;;;;4995334;28;19918;-70
2022/10/16 04:24:11;;;;;;;;;;;13.10;96.00;;;;;;4997245;28;19984;-69
2022/10/16 04:26:36;;;;;;;;;;;13.10;96.00;;;;;;4986390;28;19917;-70
2022/10/16 04:29:02;;;;;;;;;;;13.10;96.00;;;;;;4998632;28;19925;-69
2022/10/16 04:31:27;;;;;;;;;;;13.10;96.00;;;;;;4991436;28;19913;-70
2022/10/16 04:33:53;;;;;;;;;;;13.00;95.90;;;;;;4996542;28;19917;-69
2022/10/16 04:36:18;;;;;;;;;;;13.10;96.00;;;;;;4998072;28;19960;-69
2022/10/16 04:38:44;;;;;;;;;;;13.00;96.00;;;;;;4990653;28;19917;-69
2022/10/16 04:41:09;;;;;;;;;;;13.00;96.00;;;;;;4991708;28;20311;-69
2022/10/16 04:43:35;;;;;;;;;;;13.00;96.00;;;;;;4990376;28;19917;-69
2022/10/16 04:46:01;;;;;;;;;;;13.10;96.00;;;;;;4993100;28;20260;-69
2022/10/16 04:48:27;;;;;;;;;;;13.00;96.00;;;;;;4993829;28;20680;-69
2022/10/16 04:50:52;;;;;;;;;;;13.00;95.90;;;;;;4995680;28;19914;-70
2022/10/16 04:53:18;;;;;;;;;;;13.00;96.00;;;;;;4987780;28;20797;-69
2022/10/16 04:55:43;;;;;;;;;;;13.00;95.90;;;;;;4992573;28;19918;-69
2022/10/16 04:58:09;;;;;;;;;;;13.00;95.90;;;;;;4988104;28;19926;-69
2022/10/16 05:00:34;;;;;;;;;;;13.00;95.90;;;;;;4990018;28;19940;-69
2022/10/16 05:03:00;;;;;;;;;;;13.00;95.90;;;;;;4990059;28;20000;-70
2022/10/16 05:05:26;;;;;;;;;;;13.00;95.90;;;;;;4995891;28;20432;-69
2022/10/16 05:07:52;;;;;;;;;;;13.00;95.90;;;;;;4988882;28;19914;-69
2022/10/16 05:10:17;;;;;;;;;;;13.00;95.90;;;;;;4991068;28;19918;-69
2022/10/16 05:12:43;;;;;;;;;;;13.00;95.90;;;;;;4991653;28;19921;-70
2022/10/16 05:15:09;;;;;;;;;;;13.00;95.90;;;;;;4984634;28;19929;-69
2022/10/16 05:17:34;;;;;;;;;;;13.00;95.90;;;;;;4996186;28;20538;-69
2022/10/16 05:20:00;;;;;;;;;;;13.00;95.90;;;;;;4988302;28;19924;-70
2022/10/16 05:22:25;;;;;;;;;;;13.00;95.80;;;;;;4988664;28;20009;-69
2022/10/16 05:24:50;;;;;;;;;;;13.00;95.80;;;;;;4985198;28;19914;-69
2022/10/16 05:27:18;;;;;;;;;;;13.00;95.80;;;;;;4992037;28;19918;-69
2022/10/16 05:29:48;;;;;;;;;;;13.00;95.90;;;;;;4983186;28;19949;-69
2022/10/16 05:32:14;;;;;;;;;;;13.00;96.00;;;;;;4992851;28;19914;-70
2022/10/16 05:34:39;;;;;;;;;;;13.00;95.90;;;;;;4986963;28;19918;-69
2022/10/16 05:37:05;;;;;;;;;;;13.00;95.90;;;;;;4991569;28;20565;-69
2022/10/16 05:39:30;;;;;;;;;;;13.00;95.80;;;;;;4984781;28;19918;-71
2022/10/16 05:41:56;;;;;;;;;;;13.00;95.80;;;;;;4992218;28;20012;-69
2022/10/16 05:44:21;;;;;;;;;;;13.00;95.90;;;;;;4991755;28;19914;-69
2022/10/16 05:46:47;;;;;;;;;;;12.90;95.80;;;;;;4999159;28;19919;-69
2022/10/16 05:49:12;;;;;;;;;;;13.00;95.80;;;;;;4994755;28;19914;-69
2022/10/16 05:51:38;;;;;;;;;;;13.00;95.80;;;;;;4988826;28;21009;-69
2022/10/16 05:54:03;;;;;;;;;;;13.00;95.90;;;;;;4997645;28;19987;-69
2022/10/16 05:56:29;;;;;;;;;;;13.00;95.90;;;;;;4986501;28;20508;-69
2022/10/16 05:58:54;;;;;;;;;;;12.90;95.80;;;;;;4986752;28;19913;-70
2022/10/16 06:01:23;;;;;;;;;;;12.90;95.90;;;;;;4986335;28;19920;-69
2022/10/16 06:03:50;;;;;;;;;;;12.90;95.80;;;;;;4989566;28;20451;-69
2022/10/16 06:06:16;;;;;;;;;;;13.00;95.80;;;;;;4992042;28;19917;-69
2022/10/16 06:08:42;;;;;;;;;;;13.00;95.90;;;;;;4989159;28;20538;-69
2022/10/16 06:11:09;;;;;;;;;;;12.90;95.90;;;;;;4996071;28;19929;-69
2022/10/16 06:13:35;;;;;;;;;;;12.90;95.80;;;;;;4989480;28;20001;-69
2022/10/16 06:16:01;;;;;;;;;;;12.90;95.90;;;;;;4986679;28;19918;-69
2022/10/16 06:18:27;;;;;;;;;;;12.90;95.80;;;;;;4989030;28;19914;-69
2022/10/16 06:20:53;;;;;;;;;;;12.90;95.80;;;;;;4988873;28;19925;-69
2022/10/16 06:23:19;;;;;;;;;;;12.90;95.80;;;;;;4994119;28;19928;-69
2022/10/16 06:25:44;;;;;;;;;;;12.90;95.90;;;;;;4993578;28;19955;-69
2022/10/16 06:28:10;;;;;;;;;;;12.90;95.90;;;;;;4989556;28;19955;-69
2022/10/16 06:30:35;;;;;;;;;;;12.90;95.80;;;;;;4987966;28;20283;-70
2022/10/16 06:33:01;;;;;;;;;;;12.90;95.90;;;;;;4992940;28;19956;-69
2022/10/16 06:35:26;;;;;;;;;;;12.90;95.80;;;;;;5001744;28;19942;-69
2022/10/16 06:37:55;;;;;;;;;;;12.90;95.80;;;;;;4999494;28;19913;-69
2022/10/16 06:40:20;;;;;;;;;;;12.90;95.90;;;;;;4999277;28;20467;-70
2022/10/16 06:42:46;;;;;;;;;;;12.90;95.80;;;;;;4991655;28;19917;-70
2022/10/16 06:45:12;;;;;;;;;;;12.90;95.80;;;;;;4992204;28;19951;-69
2022/10/16 06:47:38;;;;;;;;;;;12.90;95.80;;;;;;4992958;28;19924;-70
2022/10/16 06:50:03;;;;;;;;;;;13.00;95.80;;;;;;4991797;28;20825;-69
2022/10/16 06:52:29;;;;;;;;;;;13.00;95.90;;;;;;4995649;28;20538;-69
2022/10/16 06:54:54;;;;;;;;;;;13.00;95.80;;;;;;4993390;28;19939;-69
2022/10/16 06:57:20;;;;;;;;;;;13.00;95.80;;;;;;4991842;28;19964;-70
2022/10/16 06:59:45;;;;;;;;;;;13.00;95.80;;;;;;4996085;28;19944;-70
2022/10/16 07:02:11;;;;;;;;;;;13.00;95.80;;;;;;4999822;28;19953;-70
2022/10/16 07:04:36;;;;;;;;;;;13.00;95.80;;;;;;4992021;28;19917;-69
2022/10/16 07:07:02;;;;;;;;;;;13.00;95.90;;;;;;4997130;28;19996;-70
2022/10/16 07:09:27;;;;;;;;;;;13.00;95.90;;;;;;4989273;28;19924;-70
2022/10/16 07:11:53;;;;;;;;;;;13.00;95.80;;;;;;4994729;28;19920;-69
2022/10/16 07:14:19;;;;;;;;;;;13.00;95.70;;;;;;4986000;28;19933;-69
2022/10/16 07:16:45;;;;;;;;;;;13.00;95.70;;;;;;4988978;28;19966;-69
2022/10/16 07:19:12;;;;;;;;;;;13.00;95.70;;;;;;4992306;28;20676;-69
2022/10/16 07:21:37;;;;;;;;;;;13.00;95.70;;;;;;4994741;28;20472;-69
2022/10/16 07:24:04;;;;;;;;;;;13.00;95.70;;;;;;4995884;28;19917;-69
2022/10/16 07:26:31;;;;;;;;;;;13.00;95.70;;;;;;4993950;28;19914;-69
2022/10/16 07:28:57;;;;;;;;;;;13.00;95.70;;;;;;4998108;28;20278;-69
2022/10/16 07:31:23;;;;;;;;;;;13.00;95.80;;;;;;4990412;28;19960;-69
2022/10/16 07:33:48;;;;;;;;;;;13.00;95.70;;;;;;4989548;28;19991;-68
2022/10/16 07:36:15;;;;;;;;;;;13.00;95.80;;;;;;4999304;28;19914;-69
2022/10/16 07:38:42;;;;;;;;;;;13.00;95.70;;;;;;4992703;28;19924;-69
2022/10/16 07:41:09;;;;;;;;;;;13.00;95.70;;;;;;4996360;28;19979;-69
2022/10/16 07:43:34;;;;;;;;;;;13.00;95.80;;;;;;4994606;28;19914;-69
2022/10/16 07:46:00;;;;;;;;;;;13.00;95.70;;;;;;4985838;28;19918;-70
2022/10/16 07:48:31;;;;;;;;;;;13.00;95.70;;;;;;4987718;28;19956;-69
2022/10/16 07:50:57;;;;;;;;;;;13.00;95.70;;;;;;4986528;28;19918;-69
2022/10/16 07:53:22;;;;;;;;;;;13.10;95.70;;;;;;4999156;28;19914;-69
2022/10/16 07:55:48;;;;;;;;;;;13.10;95.70;;;;;;4987002;28;19936;-69
2022/10/16 07:58:13;;;;;;;;;;;13.00;95.70;;;;;;4992774;28;19940;-69
2022/10/16 08:00:39;;;;;;;;;;;13.10;95.80;;;;;;4986245;28;20287;-69
2022/10/16 08:03:04;;;;;;;;;;;13.00;95.70;;;;;;4996339;28;19973;-69
2022/10/16 08:05:31;;;;;;;;;;;13.10;95.70;;;;;;4985548;28;19980;-69
2022/10/16 08:07:56;;;;;;;;;;;13.10;95.70;;;;;;4991920;28;19913;-69
2022/10/16 08:10:23;;;;;;;;;;;13.10;95.70;;;;;;4987980;28;19948;-69
2022/10/16 08:12:49;;;;;;;;;;;13.10;95.60;;;;;;4995142;28;19924;-69
2022/10/16 08:15:14;;;;;;;;;;;13.10;95.60;;;;;;4986064;28;19918;-69
2022/10/16 08:17:40;;;;;;;;;;;13.10;95.60;;;;;;4990423;28;19917;-69
2022/10/16 08:20:06;;;;;;;;;;;13.20;95.70;;;;;;4986583;28;19925;-69
2022/10/16 08:22:31;;;;;;;;;;;13.20;95.60;;;;;;4988593;28;19918;-69
2022/10/16 08:24:57;;;;;;;;;;;13.20;95.60;;;;;;4996769;28;19913;-69
2022/10/16 08:27:22;;;;;;;;;;;13.20;95.70;;;;;;4989504;28;19925;-69
2022/10/16 08:29:51;;;;;;;;;;;13.20;95.50;;;;;;5000154;28;20004;-69
2022/10/16 08:32:16;;;;;;;;;;;13.30;95.70;;;;;;4990410;28;19918;-69
2022/10/16 08:34:42;;;;;;;;;;;13.30;95.50;;;;;;4992649;28;19940;-69
2022/10/16 08:37:10;;;;;;;;;;;13.30;95.50;;;;;;4989568;28;20028;-68
2022/10/16 08:39:36;;;;;;;;;;;13.30;95.50;;;;;;4996489;28;19984;-68
2022/10/16 08:42:18;;;;;;;;;;;13.30;95.70;;;;;;4995912;28;20518;-69
2022/10/16 08:44:43;;;;;;;;;;;13.40;95.60;;;;;;4997570;28;19953;-69
2022/10/16 08:47:22;;;;;;;;;;;13.40;95.70;;;;;;4992902;28;19957;-69
2022/10/16 08:49:55;;;;;;;;;;;13.40;95.60;;;;;;4994553;28;19917;-70
2022/10/16 08:52:20;;;;;;;;;;;13.50;95.70;;;;;;4992761;28;19917;-69
2022/10/16 08:54:48;;;;;;;;;;;13.50;95.60;;;;;;4994393;28;20497;-70
2022/10/16 08:57:16;;;;;;;;;;;13.50;95.50;;;;;;4986450;28;19925;-69
2022/10/16 08:59:42;;;;;;;;;;;13.60;95.50;;;;;;4995370;28;20567;-69
2022/10/16 09:02:30;;;;;;;;;;;13.60;95.40;;;;;;4991482;28;19976;-69
2022/10/16 09:05:03;;;;;;;;;;;13.60;95.40;;;;;;4988612;28;19956;-69
2022/10/16 09:07:29;;;;;;;;;;;13.60;95.40;;;;;;4989313;28;19917;-69
2022/10/16 09:10:13;;;;;;;;;;;13.60;95.50;;;;;;4991094;28;19929;-69
2022/10/16 09:13:01;;;;;;;;;;;13.70;95.50;;;;;;4988148;28;20542;-70
2022/10/16 09:15:27;;;;;;;;;;;13.70;95.30;;;;;;4988552;28;19921;-69
2022/10/16 09:17:58;;;;;;;;;;;13.80;95.40;;;;;;4993815;28;19924;-69
2022/10/16 09:20:27;;;;;;;;;;;13.70;95.30;;;;;;4993425;28;20021;-70
2022/10/16 09:23:04;;;;;;;;;;;13.80;95.30;;;;;;4988569;28;20322;-69
2022/10/16 09:25:30;;;;;;;;;;;13.80;95.30;;;;;;4996466;28;19957;-70
2022/10/16 09:27:55;;;;;;;;;;;13.80;95.40;;;;;;4991902;28;19909;-69
2022/10/16 09:30:21;;;;;;;;;;;13.90;95.50;;;;;;4992453;28;19987;-70
2022/10/16 09:32:49;;;;;;;;;;;13.90;95.40;;;;;;4987697;28;20441;-70
2022/10/16 09:35:24;;;;;;;;;;;13.90;95.40;;;;;;4988629;28;20410;-70
2022/10/16 09:37:51;;;;;;;;;;;13.90;95.40;;;;;;5000283;28;20453;-70
2022/10/16 09:40:28;;;;;;;;;;;13.90;95.60;;;;;;4985975;28;20569;-69
2022/10/16 09:42:57;;;;;;;;;;;13.90;95.40;;;;;;4995650;28;19917;-70
2022/10/16 09:45:23;;;;;;;;;;;14.00;95.30;;;;;;4992906;28;20499;-69
2022/10/16 09:47:49;;;;;;;;;;;14.00;95.20;;;;;;4994546;28;20018;-69
2022/10/16 09:50:26;;;;;;;;;;;14.10;95.20;;;;;;4988666;28;19924;-69
2022/10/16 09:53:02;;;;;;;;;;;14.10;95.10;;;;;;4990413;28;20448;-70
2022/10/16 09:55:28;;;;;;;;;;;14.10;95.20;;;;;;4992744;28;19972;-69
2022/10/16 09:57:54;;;;;;;;;;;14.10;95.10;;;;;;4992208;28;19993;-69
2022/10/16 10:00:20;;;;;;;;;;;14.10;95.10;;;;;;4992640;28;19948;-69
2022/10/16 10:02:46;;;;;;;;;;;14.20;95.10;;;;;;4989369;28;20426;-69
2022/10/16 10:05:20;;;;;;;;;;;14.30;95.10;;;;;;4987861;28;19917;-69
2022/10/16 10:07:52;;;;;;;;;;;14.30;94.80;;;;;;4992852;28;19914;-69
2022/10/16 10:10:21;;;;;;;;;;;14.30;94.90;;;;;;4992246;28;19921;-70
2022/10/16 10:12:47;;;;;;;;;;;14.40;94.90;;;;;;5001079;28;19913;-69
2022/10/16 10:15:14;;;;;;;;;;;14.40;94.80;;;;;;4990441;28;20440;-69
2022/10/16 10:17:47;;;;;;;;;;;14.40;94.80;;;;;;4992166;28;19960;-69
2022/10/16 10:20:22;;;;;;;;;;;14.40;94.80;;;;;;5001643;28;19917;-69
2022/10/16 10:22:47;;;;;;;;;;;14.50;94.70;;;;;;4997190;28;20509;-69
2022/10/16 10:25:13;;;;;;;;;;;14.50;94.70;;;;;;4991239;28;19921;-69
2022/10/16 10:27:57;;;;;;;;;;;14.60;94.80;;;;;;4996500;28;19922;-69
2022/10/16 10:30:23;;;;;;;;;;;14.60;94.70;;;;;;4988349;28;20016;-71
2022/10/16 10:32:48;;;;;;;;;;;14.60;94.60;;;;;;4996945;28;20624;-68
2022/10/16 10:35:14;;;;;;;;;;;14.60;94.50;;;;;;4992842;28;19921;-69
2022/10/16 10:38:06;;;;;;;;;;;14.70;94.60;;;;;;4995545;28;20452;-69
2022/10/16 10:40:52;;;;;;;;;;;14.70;94.40;;;;;;4982674;28;20016;-69
2022/10/16 10:43:17;;;;;;;;;;;14.80;94.40;;;;;;4991925;28;19914;-69
2022/10/16 10:45:44;;;;;;;;;;;14.80;94.50;;;;;;4995400;28;19921;-69
2022/10/16 10:48:17;;;;;;;;;;;14.80;94.40;;;;;;4994096;28;19931;-69
2022/10/16 10:51:01;;;;;;;;;;;14.80;94.60;;;;;;4994986;28;20596;-67
2022/10/16 10:53:35;;;;;;;;;;;14.80;94.40;;;;;;4995214;28;19918;-67
2022/10/16 10:56:07;;;;;;;;;;;14.90;94.40;;;;;;4993964;28;20373;-67
2022/10/16 10:58:35;;;;;;;;;;;14.90;94.40;;;;;;4991602;28;20271;-67
2022/10/16 11:01:17;;;;;;;;;;;14.90;94.50;;;;;;4997754;28;20006;-67
2022/10/16 11:03:46;;;;;;;;;;;14.90;94.40;;;;;;4997017;28;19953;-67
2022/10/16 11:06:11;;;;;;;;;;;15.00;94.30;;;;;;4995106;28;20600;-67
2022/10/16 11:08:46;;;;;;;;;;;15.00;94.30;;;;;;4994158;28;19917;-66
2022/10/16 11:11:20;;;;;;;;;;;15.10;94.30;;;;;;5000544;28;19928;-66
2022/10/16 11:13:55;;;;;;;;;;;15.10;94.30;;;;;;4996239;28;20412;-67
2022/10/16 11:16:27;;;;;;;;;;;15.10;94.30;;;;;;4993794;28;19924;-67
2022/10/16 11:18:56;;;;;;;;;;;15.10;94.30;;;;;;4991163;28;20382;-67
2022/10/16 11:21:22;;;;;;;;;;;15.20;94.30;;;;;;4999160;28;19914;-67
2022/10/16 11:23:48;;;;;;;;;;;15.20;94.30;;;;;;4990454;28;19917;-67
2022/10/16 11:26:18;;;;;;;;;;;15.30;94.30;;;;;;4992706;28;19943;-67
2022/10/16 11:28:49;;;;;;;;;;;15.40;94.50;;;;;;4993292;28;20645;-66
2022/10/16 11:31:31;;;;;;;;;;;15.40;94.20;;;;;;4998963;28;19922;-67
2022/10/16 11:34:03;;;;;;;;;;;15.40;94.20;;;;;;4989845;28;20399;-67
2022/10/16 11:36:44;;;;;;;;;;;15.50;94.30;;;;;;4991264;28;19917;-67
2022/10/16 11:39:20;;;;;;;;;;;15.50;94.40;;;;;;4991595;28;19949;-66
2022/10/16 11:41:49;;;;;;;;;;;15.50;94.40;;;;;;4997248;28;19964;-66
2022/10/16 11:44:32;;;;;;;;;;;15.50;94.30;;;;;;4991567;28;20363;-67
2022/10/16 11:47:08;;;;;;;;;;;15.50;94.50;;;;;;4990876;28;19914;-67
2022/10/16 11:49:33;;;;;;;;;;;15.60;94.50;;;;;;4990228;28;20520;-67
2022/10/16 11:52:16;;;;;;;;;;;15.60;94.50;;;;;;4994389;28;19922;-66
2022/10/16 11:54:48;;;;;;;;;;;15.60;94.40;;;;;;4984618;28;19921;-67
2022/10/16 11:57:34;;;;;;;;;;;15.70;94.60;;;;;;5002027;28;19916;-67
2022/10/16 12:00:09;;;;;;;;;;;15.80;94.40;;;;;;4993213;28;19932;-66
2022/10/16 12:02:53;;;;;;;;;;;15.90;94.40;;;;;;4994832;28;20001;-67
2022/10/16 12:05:25;;;;;;;;;;;15.90;94.40;;;;;;4982125;28;19929;-67
2022/10/16 12:08:10;;;;;;;;;;;16.00;94.50;;;;;;4993251;28;19996;-66
2022/10/16 12:10:37;;;;;;;;;;;16.00;94.30;;;;;;4989187;28;19928;-67
2022/10/16 12:13:03;;;;;;;;;;;16.10;94.40;;;;;;4997452;28;19913;-67
2022/10/16 12:15:30;;;;;;;;;;;16.20;94.40;;;;;;4993860;28;19922;-67
2022/10/16 12:17:55;;;;;;;;;;;16.20;94.10;;;;;;4995599;28;19913;-67
2022/10/16 12:20:30;;;;;;;;;;;16.30;94.30;;;;;;4990917;28;19924;-67
2022/10/16 12:23:00;;;;;;;;;;;16.30;94.30;;;;;;5001819;28;19929;-67
2022/10/16 12:25:30;;;;;;;;;;;16.40;94.40;;;;;;4991383;28;19952;-66
2022/10/16 12:28:07;;;;;;;;;;;16.40;94.30;;;;;;4986132;28;19918;-66
2022/10/16 12:30:34;;;;;;;;;;;16.40;94.40;;;;;;4990471;28;19913;-66
2022/10/16 12:33:01;;;;;;;;;;;16.30;94.50;;;;;;4990985;28;19929;-67
2022/10/16 12:35:29;;;;;;;;;;;16.40;94.70;;;;;;4990976;28;19928;-67
2022/10/16 12:38:04;;;;;;;;;;;16.40;94.50;;;;;;4986203;28;19917;-66
2022/10/16 12:40:31;;;;;;;;;;;16.60;94.50;;;;;;4984643;28;19910;-67
2022/10/16 12:42:56;;;;;;;;;;;16.60;94.70;;;;;;4994879;28;19957;-67
2022/10/16 12:45:32;;;;;;;;;;;16.60;94.80;;;;;;4991706;28;20004;-67
2022/10/16 12:47:58;;;;;;;;;;;16.70;94.80;;;;;;4992089;28;19968;-67
2022/10/16 12:50:27;;;;;;;;;;;16.70;94.80;;;;;;4992953;28;19928;-67
2022/10/16 12:52:52;;;;;;;;;;;16.70;94.80;;;;;;4988591;28;19917;-67
2022/10/16 12:55:20;;;;;;;;;;;16.80;94.80;;;;;;4990547;28;19918;-67
2022/10/16 12:57:45;;;;;;;;;;;16.80;94.30;;;;;;4988532;28;19918;-66
2022/10/16 13:00:33;;;;;;;;;;;16.80;94.10;;;;;;4992566;28;19963;-67
2022/10/16 13:03:02;;;;;;;;;;;16.80;94.20;;;;;;4991310;28;20008;-67
2022/10/16 13:05:27;;;;;;;;;;;16.80;93.90;;;;;;4992861;28;19917;-67
2022/10/16 13:07:57;;;;;;;;;;;16.80;94.30;;;;;;4989822;28;20530;-67
2022/10/16 13:10:35;;;;;;;;;;;16.80;94.30;;;;;;4992145;28;19921;-67
2022/10/16 13:13:27;;;;;;;;;;;16.80;94.40;;;;;;4987607;28;19929;-67
2022/10/16 13:15:53;;;;;;;;;;;16.80;94.60;;;;;;4991198;28;20264;-67
2022/10/16 13:18:32;;;;;;;;;;;16.80;94.70;;;;;;4990314;28;19917;-67
2022/10/16 13:21:06;;;;;;;;;;;16.90;94.80;;;;;;4997691;28;19923;-67
2022/10/16 13:23:39;;;;;;;;;;;16.80;95.00;;;;;;4988730;28;19921;-67
2022/10/16 13:26:17;;;;;;;;;;;16.80;95.20;;;;;;4994115;28;20657;-67
2022/10/16 13:28:42;;;;;;;;;;;16.90;95.10;;;;;;4989861;28;19976;-67
2022/10/16 13:31:15;;;;;;;;;;;16.90;94.90;;;;;;4990003;28;19918;-67
2022/10/16 13:33:42;;;;;;;;;;;16.90;95.00;;;;;;4988478;28;19913;-67
2022/10/16 13:36:18;;;;;;;;;;;16.90;95.10;;;;;;4988330;28;19918;-67
2022/10/16 13:38:43;;;;;;;;;;;16.80;94.90;;;;;;4985001;28;19918;-68
2022/10/16 13:41:17;;;;;;;;;;;16.80;95.30;;;;;;4987069;28;19917;-67
2022/10/16 13:43:49;;;;;;;;;;;16.80;95.30;;;;;;4990775;28;20038;-67
2022/10/16 13:46:16;;;;;;;;;;;16.80;95.30;;;;;;4992932;28;19967;-67
2022/10/16 13:48:42;;;;;;;;;;;16.80;95.30;;;;;;4988065;28;19929;-67
2022/10/16 13:51:10;;;;;;;;;;;16.80;95.30;;;;;;4996950;28;19913;-67
2022/10/16 13:53:36;;;;;;;;;;;16.80;95.30;;;;;;4986036;28;20437;-67
2022/10/16 13:56:03;;;;;;;;;;;16.90;95.30;;;;;;4994789;28;19921;-69
2022/10/16 13:58:29;;;;;;;;;;;16.90;95.20;;;;;;4985660;28;19964;-67
2022/10/16 14:00:56;;;;;;;;;;;16.90;95.30;;;;;;5000266;28;19956;-67
2022/10/16 14:03:22;;;;;;;;;;;16.90;95.30;;;;;;4995773;28;19913;-67
2022/10/16 14:05:48;;;;;;;;;;;16.90;95.00;;;;;;5002051;28;19936;-67
2022/10/16 14:08:14;;;;;;;;;;;16.90;94.90;;;;;;5004528;28;20390;-67
2022/10/16 14:10:40;;;;;;;;;;;16.90;94.70;;;;;;5003766;28;19921;-67
2022/10/16 14:13:06;;;;;;;;;;;17.00;94.70;;;;;;5001049;28;19969;-72
2022/10/16 14:15:32;;;;;;;;;;;17.00;94.30;;;;;;4988934;28;19918;-68
2022/10/16 14:17:58;;;;;;;;;;;17.00;94.40;;;;;;4984485;28;19910;-67
2022/10/16 14:20:29;;;;;;;;;;;17.00;94.10;;;;;;4985133;28;19916;-67
2022/10/16 14:22:59;;;;;;;;;;;17.00;94.10;;;;;;4989628;28;19944;-67